Change the Weather History Date:

Friday, April 19, 2013

  Actual Average Record
Temperature  
Mean Temperature 52 °F -  
Max Temperature 58 °F 72 °F 89 °F (2006)
Min Temperature 42 °F 51 °F 39 °F (2001)
Degree Days  
Heating Degree Days 14    
Growing Degree Days 2 (Base 50)    
Moisture  
Dew Point 45 °F    
Average Humidity 80    
Maximum Humidity 100    
Minimum Humidity 44    
Precipitation  
Precipitation 0.17 in - - ()
Sea Level Pressure  
Sea Level Pressure 29.95 in    
Wind  
Wind Speed 12 mph (NW)    
Max Wind Speed 18 mph    
Max Gust Speed 25 mph    
Visibility 9 miles    
Events Rain    
Averages and records for this station are not official NWS values.
T = Trace of Precipitation, MM = Missing Value Source: NWS Daily Summary

Daily Weather History Graph

Daily Weather History Graph

Search for Another Location

Airport or City:

Trip Planner

Search our weather history database for the weather conditions in past years. The results will help you decide how hot, cold, wet, or windy it might be!

Date:

Astronomy

Apr. 19, 2013 Rise Set
Actual Time 6:18 AM CDT 7:28 PM CDT
Civil Twilight 5:52 AM CDT 7:53 PM CDT
Nautical Twilight 5:21 AM CDT 8:24 PM CDT
Astronomical Twilight 4:49 AM CDT 8:56 PM CDT
Moon 1:29 PM CDT (4/19) 2:15 AM CDT (4/19)
Length of Visible Light 14h 01m
Length of Day
13h 09m
First Quarter, 62% of the Moon is Illuminated
Apr 19
First Quarter
Apr 25
Full
May 2
Last Quarter
May 9
New
May 17
First Quarter

Hourly Weather History & Observations

Time (CDT) Temp. Windchill Dew Point Humidity Pressure Visibility Wind Dir Wind Speed Gust Speed Precip Events Conditions
12:04 AM 60.8 °F - 59.0 °F 94% 29.80 in 10.0 mi WNW 15.0 mph 21.9 mph N/A   Overcast
12:09 AM 60.8 °F - 59.0 °F 94% 29.80 in 10.0 mi NW 10.4 mph 23.0 mph N/A   Overcast
12:10 AM 60.8 °F - 59.0 °F 94% 29.80 in 10.0 mi NW 8.1 mph 23.0 mph N/A   Overcast
12:11 AM 60.8 °F - 59.0 °F 94% 29.80 in 10.0 mi NW 10.4 mph 23.0 mph N/A   Overcast
12:13 AM 60.8 °F - 59.0 °F 94% 29.79 in 10.0 mi NW 12.7 mph 23.0 mph N/A Rain Light Rain
12:24 AM 59.0 °F - 57.2 °F 94% 29.79 in 10.0 mi NNW 8.1 mph 25.3 mph N/A   Overcast
12:29 AM 59.0 °F - 57.2 °F 94% 29.81 in 10.0 mi NW 10.4 mph - N/A Rain Light Rain
12:39 AM 59.0 °F - 55.4 °F 88% 29.81 in 10.0 mi NW 10.4 mph - N/A Rain Light Rain
12:44 AM 57.2 °F - 55.4 °F 94% 29.81 in 10.0 mi NW 13.8 mph 18.4 mph N/A Rain Rain
12:58 AM 56.5 °F - 53.8 °F 91% 29.82 in 5.0 mi NW 12.7 mph - N/A Rain Heavy Rain
1:03 AM 55.4 °F - 53.6 °F 94% 29.85 in 3.0 mi WNW 16.1 mph 19.6 mph N/A Rain Heavy Rain
1:08 AM 55.4 °F - 53.6 °F 94% 29.83 in 2.5 mi WNW 11.5 mph 19.6 mph N/A Rain Heavy Rain
1:13 AM 55.4 °F - 53.6 °F 94% 29.83 in 2.5 mi NW 8.1 mph - N/A Rain Heavy Rain
1:18 AM 53.6 °F - 53.6 °F 100% 29.84 in 4.0 mi WNW 9.2 mph - N/A Rain Rain
1:23 AM 53.6 °F - 51.8 °F 94% 29.84 in 7.0 mi WNW 15.0 mph - N/A Rain Light Rain
1:38 AM 53.6 °F - 51.8 °F 94% 29.85 in 10.0 mi NW 15.0 mph 23.0 mph N/A Rain Light Rain
1:58 AM 53.6 °F - 51.8 °F 94% 29.88 in 4.0 mi NW 11.5 mph - N/A Rain Heavy Rain
2:03 AM 53.6 °F - 51.8 °F 94% 29.84 in 2.5 mi NNW 12.7 mph 16.1 mph N/A Rain Heavy Rain
2:08 AM 53.6 °F - 51.8 °F 94% 29.83 in 4.0 mi NNW 12.7 mph 16.1 mph N/A Rain Rain
2:13 AM 53.6 °F - 51.8 °F 94% 29.83 in 6.0 mi NW 12.7 mph 17.3 mph N/A Rain Rain
2:18 AM 51.8 °F - 51.8 °F 100% 29.83 in 5.0 mi North 10.4 mph 17.3 mph N/A Rain Rain
2:28 AM 51.8 °F - 50.0 °F 94% 29.85 in 8.0 mi NNW 11.5 mph 19.6 mph N/A Rain Light Rain
2:42 AM 51.8 °F - 50.0 °F 94% 29.87 in 10.0 mi NW 9.2 mph - N/A Rain Light Rain
2:43 AM 51.8 °F - 50.0 °F 94% 29.86 in 10.0 mi NW 8.1 mph - N/A   Overcast
2:44 AM 51.8 °F - 50.0 °F 94% 29.86 in 10.0 mi NW 10.4 mph - N/A Rain Rain
2:58 AM 50.0 °F - 48.2 °F 94% 29.89 in 7.0 mi NW 13.8 mph - 0.12 in Rain Light Rain
3:08 AM 50.0 °F - 48.2 °F 94% 29.88 in 9.0 mi NW 12.7 mph - N/A Rain Light Rain
3:23 AM 48.2 °F - 46.4 °F 93% 29.89 in 10.0 mi NNW 13.8 mph - N/A   Overcast
3:34 AM 48.2 °F - 46.4 °F 93% 29.92 in 10.0 mi NW 12.7 mph - N/A Rain Light Rain
3:39 AM 48.2 °F - 46.4 °F 93% 29.92 in 10.0 mi NW 10.4 mph - N/A Rain Light Rain
3:44 AM 48.2 °F - 46.4 °F 93% 29.92 in 6.0 mi WNW 11.5 mph - N/A Rain Light Rain
3:54 AM 48.2 °F - 44.6 °F 87% 29.90 in 10.0 mi NW 11.5 mph - N/A Rain Light Rain
3:58 AM 48.0 °F - 45.3 °F 90% 29.93 in 10.0 mi NW 12.7 mph - 0.03 in Rain Light Rain
4:13 AM 48.2 °F - 44.6 °F 87% 29.92 in 8.0 mi WNW 15.0 mph - N/A Rain Light Rain
4:18 AM 48.2 °F - 44.6 °F 87% 29.92 in 10.0 mi WNW 15.0 mph - N/A Rain Light Rain
4:23 AM 48.2 °F - 44.6 °F 87% 29.93 in 10.0 mi WNW 16.1 mph - N/A   Overcast
4:28 AM 46.4 °F 39.2 °F 44.6 °F 93% 29.93 in 10.0 mi WNW 18.4 mph - N/A Rain Light Rain
4:33 AM 46.4 °F 41.1 °F 44.6 °F 93% 29.92 in 10.0 mi NNW 11.5 mph - N/A Rain Light Rain
4:37 AM 46.4 °F 41.5 °F 44.6 °F 93% 29.91 in 10.0 mi NNW 10.4 mph 19.6 mph N/A   Overcast
4:47 AM 46.4 °F 41.9 °F 44.6 °F 93% 29.92 in 10.0 mi NW 9.2 mph 17.3 mph N/A   Overcast
4:58 AM 47.1 °F - 44.2 °F 90% 29.93 in 10.0 mi NNW 10.4 mph 17.3 mph 0.02 in   Overcast
5:23 AM 46.4 °F 41.5 °F 42.8 °F 87% 29.94 in 10.0 mi NW 10.4 mph - N/A   Overcast
6:18 AM 46.4 °F 41.1 °F 42.8 °F 87% 29.97 in 10.0 mi NW 11.5 mph - N/A   Overcast
6:58 AM 45.7 °F 39.8 °F 40.6 °F 83% 30.00 in 10.0 mi WNW 12.7 mph - N/A   Overcast
7:18 AM 46.4 °F 40.1 °F 41.0 °F 81% 30.00 in 10.0 mi NW 15.0 mph - N/A   Overcast
7:33 AM 46.4 °F 40.7 °F 39.2 °F 76% 30.00 in 10.0 mi NW 12.7 mph - N/A   Overcast
7:58 AM 46.2 °F 39.3 °F 38.5 °F 74% 30.02 in 10.0 mi NW 17.3 mph - N/A   Overcast
8:38 AM 46.4 °F 41.1 °F 37.4 °F 71% 30.03 in 10.0 mi WNW 11.5 mph - N/A   Overcast
8:53 AM 46.4 °F 40.1 °F 37.4 °F 71% 30.02 in 10.0 mi WNW 15.0 mph - N/A   Overcast
8:58 AM 46.0 °F 39.6 °F 36.9 °F 70% 30.04 in 10.0 mi NW 15.0 mph - N/A   Overcast
9:08 AM 46.4 °F 41.1 °F 35.6 °F 66% 30.03 in 10.0 mi WNW 11.5 mph - N/A   Overcast
9:58 AM 48.4 °F - 36.3 °F 63% 30.09 in 10.0 mi WNW 12.7 mph - N/A   Overcast
10:53 AM 48.2 °F - 35.6 °F 62% 30.07 in 10.0 mi WNW 11.5 mph 19.6 mph N/A   Overcast
10:58 AM 49.1 °F - 36.1 °F 61% 30.08 in 10.0 mi WNW 9.2 mph - N/A   Overcast
11:13 AM 48.2 °F - 35.6 °F 62% 30.09 in 10.0 mi WNW 9.2 mph - N/A   Mostly Cloudy
11:58 AM 50.5 °F - 36.7 °F 59% 30.07 in 10.0 mi WNW 11.5 mph - N/A   Overcast
12:58 PM 51.6 °F - 37.2 °F 58% 30.07 in 10.0 mi WNW 10.4 mph - N/A   Overcast
1:28 PM 53.6 °F - 37.4 °F 54% 30.07 in 10.0 mi West 11.5 mph - N/A   Overcast
1:33 PM 53.6 °F - 37.4 °F 54% 30.07 in 10.0 mi West 9.2 mph - N/A   Overcast
1:58 PM 52.2 °F - 36.5 °F 55% 30.08 in 10.0 mi West 10.4 mph - N/A   Overcast
2:18 PM 55.4 °F - 35.6 °F 47% 30.06 in 10.0 mi WSW 8.1 mph 16.1 mph N/A   Mostly Cloudy
2:58 PM 56.3 °F - 36.0 °F 46% 30.06 in 10.0 mi WSW 10.4 mph - N/A   Mostly Cloudy
3:43 PM 55.4 °F - 37.4 °F 51% 30.03 in 10.0 mi West 12.7 mph 23.0 mph N/A   Overcast
3:48 PM 55.4 °F - 35.6 °F 47% 30.03 in 10.0 mi West 15.0 mph 23.0 mph N/A   Overcast
3:58 PM 57.4 °F - 35.8 °F 44% 30.04 in 10.0 mi West 17.3 mph - N/A   Overcast
4:18 PM 57.2 °F - 35.6 °F 44% 30.04 in 10.0 mi WNW 15.0 mph 23.0 mph N/A   Mostly Cloudy
4:58 PM 55.6 °F - 35.2 °F 46% 30.06 in 10.0 mi NW 12.7 mph - N/A   Scattered Clouds
5:58 PM 56.5 °F - 35.1 °F 45% 30.07 in 10.0 mi WNW 9.2 mph - N/A   Partly Cloudy
6:58 PM 53.6 °F - 34.9 °F 49% 30.09 in 10.0 mi WNW 13.8 mph - N/A   Partly Cloudy
7:58 PM 49.6 °F - 36.7 °F 61% 30.11 in 10.0 mi WNW 8.1 mph - N/A   Clear
8:58 PM 47.8 °F - 36.3 °F 64% 30.15 in 10.0 mi WNW 9.2 mph - N/A   Clear
9:58 PM 45.7 °F 42.0 °F 36.7 °F 71% 30.18 in 10.0 mi WNW 6.9 mph - N/A   Clear
10:58 PM 43.5 °F 40.9 °F 37.8 °F 80% 30.19 in 10.0 mi NW 4.6 mph - N/A   Clear
11:58 PM 42.6 °F 40.9 °F 38.1 °F 84% 30.20 in 10.0 mi WNW 3.5 mph - N/A   Clear